createdAt,value
2018-08-13T00:00:46.553Z,66.10
2018-08-13T00:03:18.073Z,23.00
2018-08-13T00:05:49.000Z,1.00
2018-08-13T00:10:50.505Z,1.00
2018-08-13T00:13:21.400Z,1.00
2018-08-13T00:15:51.268Z,1.00
2018-08-13T00:23:31.589Z,1.00
2018-08-13T00:26:02.788Z,1.00
2018-08-13T00:28:35.101Z,1.00
2018-08-13T00:31:05.792Z,1.00
2018-08-13T00:36:15.969Z,1.00
2018-08-13T00:38:56.129Z,1.00
2018-08-13T00:41:26.180Z,1.00
2018-08-13T00:46:34.049Z,99.90
2018-08-13T00:49:10.164Z,99.90
2018-08-13T00:51:54.360Z,99.90
2018-08-13T00:56:54.913Z,1.00
2018-08-13T01:02:00.268Z,99.90
2018-08-13T01:04:31.584Z,99.90
2018-08-13T01:07:02.040Z,1.00
2018-08-13T01:12:07.132Z,1.00
2018-08-13T01:14:39.097Z,1.00
2018-08-13T01:17:09.508Z,73.10
2018-08-13T01:24:54.292Z,99.90
2018-08-13T01:27:39.353Z,99.90
2018-08-13T01:30:12.261Z,99.90
2018-08-13T01:32:42.295Z,1.00
2018-08-13T01:37:46.030Z,1.00
2018-08-13T01:40:16.029Z,1.00
2018-08-13T01:42:51.185Z,1.00
2018-08-13T01:45:22.305Z,1.00
2018-08-13T01:50:26.328Z,99.90
2018-08-13T01:52:56.554Z,99.90
2018-08-13T01:57:58.928Z,99.90
2018-08-13T02:00:36.708Z,99.90
2018-08-13T02:03:07.340Z,1.00
2018-08-13T02:05:37.569Z,1.00
2018-08-13T02:08:16.304Z,1.00
2018-08-13T02:10:48.564Z,1.00
2018-08-13T02:13:22.756Z,1.00
2018-08-13T02:18:37.747Z,1.00
2018-08-13T02:21:07.860Z,1.00
2018-08-13T02:23:38.840Z,1.00
2018-08-13T02:28:38.556Z,1.00
2018-08-13T02:33:42.361Z,80.90
2018-08-13T02:38:54.262Z,99.90
2018-08-13T02:41:27.660Z,99.90
2018-08-13T02:43:57.693Z,99.90
2018-08-13T02:46:27.727Z,99.90
2018-08-13T02:48:58.808Z,99.90
2018-08-13T02:54:04.924Z,99.90
2018-08-13T02:56:34.952Z,99.90
2018-08-13T02:59:04.929Z,99.90
2018-08-13T03:01:35.512Z,99.90
2018-08-13T03:04:08.951Z,99.90
2018-08-13T03:06:38.872Z,99.90
2018-08-13T03:09:11.482Z,99.90
2018-08-13T03:11:48.488Z,99.90
2018-08-13T03:14:20.505Z,99.90
2018-08-13T03:16:50.996Z,99.90
2018-08-13T03:19:24.722Z,99.90
2018-08-13T03:21:54.764Z,99.90
2018-08-13T03:24:24.736Z,99.90
2018-08-13T03:27:00.363Z,99.90
2018-08-13T03:34:38.024Z,99.90
2018-08-13T03:37:09.947Z,99.90
2018-08-13T03:39:48.274Z,99.90
2018-08-13T03:42:27.527Z,99.90
2018-08-13T03:44:59.443Z,99.90
2018-08-13T03:47:31.472Z,99.90
2018-08-13T03:50:01.737Z,99.90
2018-08-13T03:57:43.043Z,99.90
2018-08-13T04:02:49.312Z,99.90
2018-08-13T04:05:31.077Z,99.90
2018-08-13T04:08:01.573Z,99.90
2018-08-13T04:13:03.049Z,99.90
2018-08-13T04:15:34.749Z,99.90
2018-08-13T04:18:11.511Z,99.90
2018-08-13T04:20:42.424Z,99.90
2018-08-13T04:25:49.974Z,99.90
2018-08-13T04:28:20.881Z,99.90
2018-08-13T04:30:50.752Z,99.90
2018-08-13T04:33:21.620Z,99.90
2018-08-13T04:35:52.468Z,99.90
2018-08-13T04:38:22.368Z,99.90
2018-08-13T04:43:22.804Z,99.90
2018-08-13T04:45:59.055Z,99.90
2018-08-13T04:48:29.884Z,99.90
2018-08-13T04:51:05.520Z,99.90
2018-08-13T04:53:36.380Z,99.90
2018-08-13T04:56:06.212Z,99.90
2018-08-13T05:01:12.561Z,99.90
2018-08-13T05:03:44.468Z,99.90
2018-08-13T05:09:01.032Z,99.90
2018-08-13T05:11:32.928Z,93.60
2018-08-13T05:14:06.640Z,91.10
2018-08-13T05:16:36.548Z,10.50
2018-08-13T05:19:07.372Z,1.00
2018-08-13T05:24:10.780Z,1.00
2018-08-13T05:26:46.128Z,1.00
2018-08-13T05:29:20.451Z,1.00
2018-08-13T05:32:01.729Z,1.00
2018-08-13T05:34:31.560Z,1.00
2018-08-13T05:37:01.428Z,99.90
2018-08-13T05:42:05.892Z,1.00
2018-08-13T05:47:11.556Z,1.00
2018-08-13T05:49:42.392Z,99.90
2018-08-13T05:54:46.036Z,1.00
2018-08-13T05:57:20.928Z,99.90
2018-08-13T05:59:50.780Z,1.00
2018-08-13T06:02:20.636Z,1.00
2018-08-13T06:04:50.475Z,1.00
2018-08-13T06:07:31.885Z,1.00
2018-08-13T06:10:02.744Z,99.90
2018-08-13T06:12:32.520Z,56.40
2018-08-13T06:17:37.292Z,1.00
2018-08-13T06:27:41.231Z,51.90
2018-08-13T06:30:16.177Z,1.00
2018-08-13T06:35:17.520Z,1.00
2018-08-13T06:45:25.552Z,99.90
2018-08-13T06:47:55.404Z,99.90
2018-08-13T06:52:56.813Z,6.20
2018-08-13T06:55:39.464Z,1.00
2018-08-13T07:05:50.028Z,1.00
2018-08-13T07:08:23.428Z,1.00
2018-08-13T07:11:15.728Z,1.00
2018-08-13T07:14:02.211Z,1.00
2018-08-13T07:16:37.747Z,99.90
2018-08-13T07:19:07.524Z,99.90
2018-08-13T07:24:34.692Z,99.90
2018-08-13T07:27:10.998Z,99.90
2018-08-13T07:29:52.991Z,99.90
2018-08-13T07:32:34.987Z,99.90
2018-08-13T07:35:11.408Z,99.90
2018-08-13T07:38:05.860Z,99.90
2018-08-13T07:40:56.276Z,99.90
2018-08-13T07:43:45.124Z,99.90
2018-08-13T07:49:06.219Z,99.90
2018-08-13T07:51:38.063Z,99.90
2018-08-13T07:54:09.919Z,99.90
2018-08-13T08:00:00.173Z,99.90
2018-08-13T08:02:31.875Z,99.90
2018-08-13T08:05:10.029Z,99.90
2018-08-13T08:07:39.895Z,99.90
2018-08-13T08:10:14.075Z,99.90
2018-08-13T08:12:47.511Z,99.90
2018-08-13T08:15:20.868Z,94.40
2018-08-13T08:18:01.915Z,97.80
2018-08-13T08:20:37.424Z,93.60
2018-08-13T08:23:12.287Z,84.50
2018-08-13T08:25:59.604Z,74.20
2018-08-13T08:28:31.323Z,76.70
2018-08-13T08:31:02.160Z,52.50
2018-08-13T08:33:34.040Z,45.10
2018-08-13T08:36:10.711Z,23.60
2018-08-13T08:39:05.360Z,9.40
2018-08-13T08:41:45.508Z,1.00
2018-08-13T08:47:11.728Z,1.00
2018-08-13T08:49:41.631Z,1.00
2018-08-13T08:54:41.943Z,1.00
2018-08-13T08:59:45.243Z,1.00
2018-08-13T09:04:46.536Z,1.00
2018-08-13T09:07:16.356Z,1.00
2018-08-13T09:09:53.535Z,1.00
2018-08-13T09:12:30.444Z,1.00
2018-08-13T09:17:56.300Z,1.00
2018-08-13T09:20:45.243Z,1.00
2018-08-13T09:26:13.940Z,1.00
2018-08-13T09:29:08.648Z,1.00
2018-08-13T09:32:34.895Z,1.00
2018-08-13T09:37:54.176Z,1.00
2018-08-13T09:40:36.978Z,1.00
2018-08-13T09:43:10.718Z,1.00
2018-08-13T09:45:42.464Z,1.00
2018-08-13T09:53:27.000Z,1.00
2018-08-13T09:56:07.459Z,1.00
2018-08-13T09:58:48.740Z,1.00
2018-08-13T10:04:11.211Z,1.00
2018-08-13T10:07:06.044Z,1.00
2018-08-13T10:09:55.272Z,1.00
2018-08-13T10:12:34.708Z,1.00
2018-08-13T10:15:07.863Z,1.00
2018-08-13T10:17:41.375Z,1.00
2018-08-13T10:22:49.623Z,1.00
2018-08-13T10:25:36.911Z,1.00
2018-08-13T10:30:54.104Z,1.00
2018-08-13T10:33:24.907Z,1.00
2018-08-13T10:38:37.748Z,1.00
2018-08-13T10:41:07.647Z,1.00
2018-08-13T10:43:56.584Z,1.00
2018-08-13T10:49:10.651Z,1.00
2018-08-13T10:51:53.525Z,1.00
2018-08-13T10:54:24.327Z,1.00
2018-08-13T10:56:58.231Z,1.00
2018-08-13T10:59:36.069Z,1.00
2018-08-13T11:02:05.971Z,1.00
2018-08-13T11:04:36.779Z,1.00
2018-08-13T11:07:10.494Z,1.00
2018-08-13T11:09:41.355Z,1.00
2018-08-13T11:12:13.167Z,1.00
2018-08-13T11:14:51.027Z,1.00
2018-08-13T11:20:20.120Z,1.00
2018-08-13T11:22:49.989Z,1.00
2018-08-13T11:25:26.480Z,1.00
2018-08-13T11:28:02.771Z,1.00
2018-08-13T11:33:10.607Z,1.00
2018-08-13T11:35:42.447Z,1.00
2018-08-13T11:38:14.279Z,1.00
2018-08-13T11:40:53.895Z,1.00
2018-08-13T11:43:29.071Z,1.00
2018-08-13T11:53:29.031Z,1.00
2018-08-13T11:58:36.567Z,1.00
2018-08-13T12:01:14.392Z,1.00
2018-08-13T12:06:26.247Z,1.00
2018-08-13T12:08:59.611Z,1.00
2018-08-13T12:11:29.420Z,1.00
2018-08-13T12:14:04.762Z,1.00
2018-08-13T12:16:36.811Z,1.00
2018-08-13T12:19:07.691Z,1.00
2018-08-13T12:21:37.484Z,1.00
2018-08-13T12:24:08.336Z,1.00
2018-08-13T12:31:56.664Z,1.00
2018-08-13T12:34:26.524Z,1.00
2018-08-13T12:37:01.559Z,1.00
2018-08-13T12:39:38.125Z,1.00
2018-08-13T12:44:45.271Z,1.00
2018-08-13T12:47:17.095Z,1.00
2018-08-13T12:54:46.948Z,1.00
2018-08-13T12:57:17.800Z,1.00
2018-08-13T13:02:23.543Z,1.00
2018-08-13T13:04:53.355Z,1.00
2018-08-13T13:07:23.142Z,1.00
2018-08-13T13:09:55.017Z,1.00
2018-08-13T13:12:25.839Z,1.00
2018-08-13T13:15:02.968Z,1.00
2018-08-13T13:17:33.771Z,1.00
2018-08-13T13:20:04.175Z,1.00
2018-08-13T13:22:39.271Z,1.00
2018-08-13T13:25:13.267Z,1.00
2018-08-13T13:27:43.159Z,1.00
2018-08-13T13:30:14.491Z,1.00
2018-08-13T13:38:01.355Z,1.00
2018-08-13T13:40:32.350Z,1.00
2018-08-13T13:43:12.947Z,1.00
2018-08-13T13:45:48.727Z,1.00
2018-08-13T13:51:14.263Z,1.00
2018-08-13T13:53:45.994Z,1.00
2018-08-13T13:56:15.795Z,1.00
2018-08-13T13:58:45.635Z,1.00
2018-08-13T14:01:15.548Z,1.00
2018-08-13T14:03:55.371Z,24.30
2018-08-13T14:06:36.447Z,53.10
2018-08-13T14:09:12.396Z,64.10
2018-08-13T14:11:47.750Z,42.30
2018-08-13T14:16:48.807Z,39.60
2018-08-13T14:21:52.232Z,48.00
2018-08-13T14:26:57.242Z,28.50
2018-08-13T14:29:31.882Z,46.90
2018-08-13T14:32:07.063Z,82.10
2018-08-13T14:44:59.627Z,99.90
2018-08-13T14:47:29.444Z,99.90
2018-08-13T14:55:06.091Z,99.90
2018-08-13T14:57:43.787Z,99.90
2018-08-13T15:00:30.359Z,99.90
2018-08-13T15:05:36.510Z,99.90
2018-08-13T15:08:08.305Z,1.00
2018-08-13T15:10:38.106Z,1.00
2018-08-13T15:13:11.919Z,1.00
2018-08-13T15:15:51.259Z,1.00
2018-08-13T15:26:06.167Z,1.00
2018-08-13T15:28:35.975Z,1.00
2018-08-13T15:33:37.543Z,1.00
2018-08-13T15:44:24.895Z,1.00
2018-08-13T15:46:55.718Z,99.90
2018-08-13T15:49:36.319Z,1.00
2018-08-13T15:52:17.323Z,1.00
2018-08-13T15:54:53.567Z,1.00
2018-08-13T15:57:23.337Z,1.00
2018-08-13T15:59:53.191Z,1.00
2018-08-13T16:02:22.972Z,1.00
2018-08-13T16:05:05.963Z,1.00
2018-08-13T16:07:40.343Z,1.00
2018-08-13T16:10:16.661Z,1.00
2018-08-13T16:12:55.066Z,1.00
2018-08-13T16:15:44.763Z,1.00
2018-08-13T16:18:16.530Z,1.00
2018-08-13T16:23:22.280Z,1.00
2018-08-13T16:25:53.130Z,99.90
2018-08-13T16:31:03.226Z,1.00
2018-08-13T16:33:39.175Z,1.00
2018-08-13T16:36:10.011Z,1.00
2018-08-13T16:38:46.994Z,1.00
2018-08-13T16:41:17.814Z,99.90
2018-08-13T16:46:18.163Z,99.90
2018-08-13T16:48:47.946Z,99.90
2018-08-13T16:54:02.159Z,99.90
2018-08-13T16:59:15.505Z,1.00
2018-08-13T17:01:45.606Z,1.00
2018-08-13T17:04:20.514Z,1.00
2018-08-13T17:06:55.907Z,99.90
2018-08-13T17:09:26.806Z,99.90
2018-08-13T17:11:56.663Z,1.00
2018-08-13T17:14:36.308Z,1.00
2018-08-13T17:17:17.990Z,1.00
2018-08-13T17:24:48.172Z,1.00
2018-08-13T17:27:18.967Z,1.00
2018-08-13T17:29:54.698Z,99.90
2018-08-13T17:32:26.527Z,99.90
2018-08-13T17:34:58.434Z,99.90
2018-08-13T17:37:40.618Z,99.90
2018-08-13T17:40:16.254Z,99.90
2018-08-13T17:42:51.870Z,99.90
2018-08-13T17:47:53.358Z,99.90
2018-08-13T17:50:26.403Z,1.00
2018-08-13T17:53:13.456Z,1.00
2018-08-13T17:55:46.218Z,99.90
2018-08-13T17:58:18.071Z,1.00
2018-08-13T18:00:47.938Z,1.00
2018-08-13T18:05:49.714Z,1.00
2018-08-13T18:13:23.327Z,69.60
2018-08-13T18:15:53.199Z,99.90
2018-08-13T18:18:23.091Z,99.90
2018-08-13T18:20:52.914Z,99.90
2018-08-13T18:25:52.290Z,99.90
2018-08-13T18:28:28.686Z,99.90
2018-08-13T18:31:03.666Z,99.90
2018-08-13T18:33:39.079Z,99.90
2018-08-13T18:36:09.862Z,99.90
2018-08-13T18:38:39.706Z,99.90
2018-08-13T18:41:10.523Z,99.90
2018-08-13T18:46:14.158Z,1.00
2018-08-13T18:51:16.554Z,1.00
2018-08-13T18:53:46.463Z,1.00
2018-08-13T18:56:16.263Z,1.00
2018-08-13T19:01:19.694Z,1.00
2018-08-13T19:03:51.470Z,1.00
2018-08-13T19:08:53.858Z,1.00
2018-08-13T19:11:24.646Z,1.00
2018-08-13T19:13:55.628Z,1.00
2018-08-13T19:16:25.546Z,1.00
2018-08-13T19:23:56.717Z,1.00
2018-08-13T19:26:32.082Z,1.00
2018-08-13T19:29:03.326Z,1.00
2018-08-13T19:31:34.638Z,1.00
2018-08-13T19:34:28.678Z,1.00
2018-08-13T19:39:30.093Z,1.00
2018-08-13T19:42:03.806Z,1.00
2018-08-13T19:44:40.359Z,1.00
2018-08-13T19:55:09.875Z,1.00
2018-08-13T19:57:40.195Z,1.00
2018-08-13T20:00:23.330Z,1.00
2018-08-13T20:05:29.431Z,1.00
2018-08-13T20:20:35.306Z,1.00
2018-08-13T20:23:07.940Z,1.00
2018-08-13T20:33:15.626Z,1.00
2018-08-13T20:35:46.556Z,1.00
2018-08-13T20:38:21.702Z,1.00
2018-08-13T20:46:04.807Z,1.00
2018-08-13T20:51:05.072Z,1.00
2018-08-13T20:53:35.167Z,1.00
2018-08-13T20:58:35.954Z,1.00
2018-08-13T21:01:06.134Z,1.00
2018-08-13T21:08:35.535Z,1.00
2018-08-13T21:11:05.778Z,1.00
2018-08-13T21:16:05.554Z,1.00
2018-08-13T21:21:07.213Z,1.00
2018-08-13T21:23:42.982Z,1.00
2018-08-13T21:28:49.173Z,1.00
2018-08-13T21:33:52.761Z,1.00
2018-08-13T21:44:02.301Z,1.00
2018-08-13T21:46:34.002Z,1.00
2018-08-13T21:54:15.266Z,1.00
2018-08-13T22:01:48.766Z,1.00
2018-08-13T22:04:18.874Z,1.00
2018-08-13T22:06:53.482Z,1.00
2018-08-13T22:09:23.843Z,1.00
2018-08-13T22:17:02.490Z,1.00
2018-08-13T22:19:36.022Z,1.00
2018-08-13T22:29:55.281Z,1.00
2018-08-13T22:32:30.178Z,1.00
2018-08-13T22:35:01.184Z,1.00
2018-08-13T22:40:12.150Z,1.00
2018-08-13T22:45:18.928Z,1.00
2018-08-13T22:47:53.598Z,1.00
2018-08-13T22:50:24.289Z,1.00
2018-08-13T22:55:33.174Z,1.00
2018-08-13T22:58:07.757Z,1.00
2018-08-13T23:03:28.001Z,1.00
2018-08-13T23:08:31.573Z,1.00
2018-08-13T23:13:34.491Z,1.00
2018-08-13T23:16:05.389Z,1.00
2018-08-13T23:18:40.241Z,1.00
2018-08-13T23:21:13.037Z,1.00
2018-08-13T23:23:45.142Z,1.00
2018-08-13T23:26:17.893Z,1.00
2018-08-13T23:31:33.766Z,1.00
2018-08-13T23:34:05.870Z,1.00
2018-08-13T23:36:40.337Z,1.00
2018-08-13T23:39:13.221Z,1.00
2018-08-13T23:44:15.604Z,1.00
2018-08-13T23:46:47.021Z,1.00
2018-08-13T23:51:57.989Z,1.00
2018-08-13T23:54:37.999Z,1.00
2018-08-13T23:57:21.033Z,1.00
2018-08-13T23:59:52.306Z,1.00
